Time;durP1;ratioP1;P1;durP2;ratioP2;P2;SDS_P1;SDS_P2;PMS_P1;PMS_P2;Temp;Humidity;BMP_temperature;BMP_pressure;BME280_temperature;BME280_humidity;BME280_pressure;Samples;Min_cycle;Max_cycle;Signal;HPM_P1;HPM_P2
2023/07/19 00:01:35;;;;;;;12.60;7.30;;;20.50;1.00;;;;;;7386951;19;20024;-64
2023/07/19 00:04:08;;;;;;;11.95;7.82;;;20.50;1.00;;;;;;7388427;19;20018;-64
2023/07/19 00:06:38;;;;;;;10.90;7.70;;;20.50;1.00;;;;;;7388652;19;20018;-64
2023/07/19 00:09:08;;;;;;;10.60;7.30;;;20.60;1.00;;;;;;7390199;19;20014;-64
2023/07/19 00:11:38;;;;;;;10.20;6.97;;;20.60;1.00;;;;;;7387237;19;20131;-64
2023/07/19 00:14:08;;;;;;;9.50;6.93;;;20.60;1.00;;;;;;7388496;19;20026;-64
2023/07/19 00:16:38;;;;;;;10.57;6.95;;;20.60;1.00;;;;;;7388650;19;20031;-64
2023/07/19 00:19:10;;;;;;;9.90;6.32;;;20.60;1.00;;;;;;7391392;19;20810;-64
2023/07/19 00:21:50;;;;;;;7.95;6.55;;;20.50;1.00;;;;;;7386545;19;20010;-64
2023/07/19 00:24:20;;;;;;;9.32;7.32;;;20.50;1.00;;;;;;7387694;19;20018;-65
2023/07/19 00:26:51;;;;;;;11.02;7.22;;;20.40;1.00;;;;;;7393092;19;20002;-64
2023/07/19 00:29:21;;;;;;;12.30;7.60;;;20.30;1.00;;;;;;7390238;19;20050;-63
2023/07/19 00:31:51;;;;;;;15.02;7.57;;;20.20;1.00;;;;;;7386936;19;20194;-64
2023/07/19 00:34:23;;;;;;;11.43;7.28;;;20.30;1.00;;;;;;7386949;19;20049;-65
2023/07/19 00:36:53;;;;;;;8.68;6.85;;;20.40;1.00;;;;;;7391359;19;20014;-65
2023/07/19 00:39:23;;;;;;;14.07;7.13;;;20.30;1.00;;;;;;7391140;19;20038;-65
2023/07/19 00:41:53;;;;;;;9.70;7.13;;;20.50;1.00;;;;;;7386447;19;20011;-65
2023/07/19 00:44:23;;;;;;;9.35;6.72;;;20.50;1.00;;;;;;7387467;19;20025;-64
2023/07/19 00:46:53;;;;;;;8.48;6.40;;;20.50;1.00;;;;;;7390776;19;20082;-64
2023/07/19 00:49:26;;;;;;;12.50;6.95;;;20.50;1.00;;;;;;7389075;19;20014;-65
2023/07/19 00:51:56;;;;;;;7.43;6.15;;;20.40;1.00;;;;;;7387875;19;20070;-64
2023/07/19 00:54:29;;;;;;;10.95;7.15;;;20.50;1.00;;;;;;7397137;19;20331;-64
2023/07/19 00:57:00;;;;;;;8.77;6.03;;;20.50;1.00;;;;;;7394498;19;20018;-64
2023/07/19 00:59:31;;;;;;;9.90;5.82;;;20.40;1.00;;;;;;7398843;19;20014;-64
2023/07/19 01:02:01;;;;;;;12.23;6.30;;;20.40;1.00;;;;;;7393296;19;20010;-63
2023/07/19 01:04:34;;;;;;;8.70;5.55;;;20.50;1.00;;;;;;7395533;19;20007;-64
2023/07/19 01:07:05;;;;;;;10.50;5.28;;;20.50;1.00;;;;;;7397078;19;20525;-63
2023/07/19 01:09:36;;;;;;;6.40;5.20;;;20.50;1.00;;;;;;7398374;19;20010;-65
2023/07/19 01:12:08;;;;;;;8.43;4.93;;;20.50;1.00;;;;;;7394903;19;20679;-64
2023/07/19 01:14:38;;;;;;;8.90;5.32;;;20.60;1.00;;;;;;7395037;19;20014;-65
2023/07/19 01:17:08;;;;;;;7.55;4.80;;;20.60;1.00;;;;;;7394131;19;20030;-64
2023/07/19 01:19:41;;;;;;;11.13;5.57;;;20.50;1.00;;;;;;7397851;19;20018;-65
2023/07/19 01:22:11;;;;;;;8.90;5.22;;;20.60;1.00;;;;;;7391982;19;20376;-64
2023/07/19 01:24:44;;;;;;;9.65;4.70;;;20.60;1.00;;;;;;7393443;19;20015;-64
2023/07/19 01:27:14;;;;;;;10.15;5.28;;;20.60;1.00;;;;;;7393938;19;20025;-63
2023/07/19 01:29:52;;;;;;;8.63;4.60;;;20.50;1.00;;;;;;7393056;19;20082;-64
2023/07/19 01:32:22;;;;;;;7.57;4.85;;;20.30;1.00;;;;;;7395000;19;20021;-64
2023/07/19 01:34:52;;;;;;;10.38;5.18;;;20.20;1.00;;;;;;7393309;19;20079;-64
2023/07/19 01:37:22;;;;;;;8.68;5.03;;;20.20;1.00;;;;;;7398003;19;20082;-63
2023/07/19 01:39:54;;;;;;;7.10;4.63;;;20.10;1.00;;;;;;7398027;19;20122;-65
2023/07/19 01:42:25;;;;;;;9.82;4.80;;;20.00;1.00;;;;;;7391564;19;20112;-63
2023/07/19 01:44:57;;;;;;;10.75;4.90;;;20.00;1.00;;;;;;7393616;19;20748;-64
2023/07/19 01:47:27;;;;;;;7.45;4.80;;;19.90;1.00;;;;;;7393588;19;20011;-65
2023/07/19 01:49:57;;;;;;;8.73;5.35;;;19.90;1.00;;;;;;7392565;19;20013;-65
2023/07/19 01:52:27;;;;;;;10.05;4.85;;;19.90;1.00;;;;;;7393886;19;20031;-64
2023/07/19 01:55:00;;;;;;;11.27;5.20;;;19.80;1.00;;;;;;7392775;19;20090;-65
2023/07/19 01:57:30;;;;;;;9.30;5.10;;;19.70;1.00;;;;;;7393576;19;20018;-68
2023/07/19 02:00:00;;;;;;;6.80;4.53;;;19.60;1.00;;;;;;7391402;19;20380;-63
2023/07/19 02:02:30;;;;;;;9.75;4.95;;;19.50;1.00;;;;;;7391553;19;20035;-64
2023/07/19 02:05:00;;;;;;;11.50;5.13;;;19.60;1.00;;;;;;7392604;19;20021;-64
2023/07/19 02:07:30;;;;;;;9.05;4.90;;;19.60;1.00;;;;;;7390254;19;20491;-64
2023/07/19 02:10:03;;;;;;;9.55;5.28;;;19.60;1.00;;;;;;7391602;19;20502;-64
2023/07/19 02:12:33;;;;;;;8.48;5.13;;;19.50;1.00;;;;;;7392296;19;20477;-63
2023/07/19 02:15:03;;;;;;;9.40;5.28;;;19.60;1.00;;;;;;7392347;19;20037;-63
2023/07/19 02:17:33;;;;;;;7.72;5.50;;;19.50;1.00;;;;;;7392464;19;20014;-64
2023/07/19 02:20:03;;;;;;;6.53;4.68;;;19.30;1.00;;;;;;7391116;19;20024;-64
2023/07/19 02:22:33;;;;;;;8.32;4.80;;;19.10;1.00;;;;;;7390146;19;20042;-64
2023/07/19 02:25:06;;;;;;;7.40;5.25;;;19.10;1.00;;;;;;7392606;19;20070;-65
2023/07/19 02:27:36;;;;;;;11.18;5.15;;;19.00;1.00;;;;;;7391802;19;20014;-65
2023/07/19 02:30:07;;;;;;;8.82;5.20;;;19.00;1.00;;;;;;7391148;19;20014;-65
2023/07/19 02:32:37;;;;;;;8.32;5.30;;;19.00;1.00;;;;;;7390907;19;20035;-65
2023/07/19 02:35:08;;;;;;;11.27;5.30;;;18.90;1.00;;;;;;7391067;19;20015;-65
2023/07/19 02:37:38;;;;;;;9.43;5.47;;;19.00;1.00;;;;;;7391233;19;20356;-65
2023/07/19 02:40:11;;;;;;;8.50;5.57;;;19.00;1.00;;;;;;7390778;19;20360;-65
2023/07/19 02:42:41;;;;;;;7.30;4.87;;;18.80;1.00;;;;;;7390260;19;20019;-64
2023/07/19 02:45:12;;;;;;;7.00;5.38;;;18.80;1.00;;;;;;7390839;19;20022;-64
2023/07/19 02:47:41;;;;;;;9.32;5.55;;;18.80;1.00;;;;;;7390624;19;20078;-64
2023/07/19 02:50:12;;;;;;;8.25;5.28;;;18.70;1.00;;;;;;7390162;19;20018;-64
2023/07/19 02:52:42;;;;;;;7.95;5.90;;;18.70;1.00;;;;;;7391197;19;20015;-65
2023/07/19 02:55:15;;;;;;;7.10;5.53;;;18.70;1.00;;;;;;7390615;19;20018;-65
2023/07/19 02:57:45;;;;;;;9.23;6.07;;;18.60;1.00;;;;;;7390528;19;20038;-64
2023/07/19 03:00:15;;;;;;;10.32;5.70;;;18.70;1.00;;;;;;7388646;19;20014;-63
2023/07/19 03:02:53;;;;;;;12.13;6.63;;;18.80;1.00;;;;;;7389722;19;20031;-65
2023/07/19 03:05:24;;;;;;;9.10;6.55;;;18.70;1.00;;;;;;7389157;19;20014;-64
2023/07/19 03:07:55;;;;;;;12.88;7.20;;;18.80;1.00;;;;;;7388538;19;20018;-64
2023/07/19 03:10:27;;;;;;;12.30;7.10;;;18.90;1.00;;;;;;7389268;19;20471;-64
2023/07/19 03:12:57;;;;;;;9.52;6.00;;;18.80;1.00;;;;;;7387885;19;20011;-65
2023/07/19 03:15:27;;;;;;;8.65;6.80;;;18.80;1.00;;;;;;7388492;19;20047;-65
2023/07/19 03:17:58;;;;;;;8.70;6.32;;;18.90;1.00;;;;;;7390257;19;20010;-64
2023/07/19 03:20:28;;;;;;;14.13;7.20;;;18.90;1.00;;;;;;7388519;19;20580;-64
2023/07/19 03:23:00;;;;;;;11.05;7.22;;;19.00;1.00;;;;;;7388957;19;20023;-64
2023/07/19 03:25:33;;;;;;;11.20;7.13;;;18.80;1.00;;;;;;7389225;19;20053;-63
2023/07/19 03:28:03;;;;;;;12.20;7.13;;;18.80;1.00;;;;;;7390202;19;20031;-64
2023/07/19 03:30:33;;;;;;;9.93;7.10;;;18.80;1.00;;;;;;7388691;19;20031;-64
2023/07/19 03:33:03;;;;;;;11.18;8.13;;;18.70;1.00;;;;;;7389465;19;20082;-64
2023/07/19 03:35:33;;;;;;;11.10;7.72;;;18.80;1.00;;;;;;7386968;19;20020;-64
2023/07/19 03:38:03;;;;;;;11.38;8.25;;;18.90;1.00;;;;;;7390059;19;20235;-64
2023/07/19 03:40:36;;;;;;;12.77;8.35;;;19.00;1.00;;;;;;7388314;19;20495;-65
2023/07/19 03:43:06;;;;;;;14.77;9.02;;;18.90;1.00;;;;;;7388419;19;20014;-64
2023/07/19 03:45:36;;;;;;;11.85;9.00;;;19.00;1.00;;;;;;7390471;19;20014;-64
2023/07/19 03:48:06;;;;;;;15.27;8.88;;;19.10;1.00;;;;;;7388694;19;20037;-64
2023/07/19 03:50:36;;;;;;;13.15;8.18;;;19.10;1.00;;;;;;7387984;19;20031;-64
2023/07/19 03:53:06;;;;;;;13.18;8.18;;;18.90;1.00;;;;;;7388712;19;20035;-64
2023/07/19 03:55:38;;;;;;;10.50;7.93;;;18.90;1.00;;;;;;7388213;19;20015;-65
2023/07/19 03:58:08;;;;;;;11.77;8.02;;;19.00;1.00;;;;;;7391261;19;20043;-64
2023/07/19 04:00:38;;;;;;;14.95;8.32;;;19.10;1.00;;;;;;7391819;19;20035;-63
2023/07/19 04:03:08;;;;;;;11.50;8.00;;;19.10;1.00;;;;;;7391412;19;20018;-64
2023/07/19 04:05:38;;;;;;;12.10;8.40;;;19.10;1.00;;;;;;7388598;19;20090;-64
2023/07/19 04:08:08;;;;;;;16.35;9.90;;;19.10;1.00;;;;;;7388018;19;20479;-64
2023/07/19 04:10:41;;;;;;;15.77;7.97;;;19.10;1.00;;;;;;7387315;19;20351;-64
2023/07/19 04:13:13;;;;;;;14.38;8.65;;;19.20;1.00;;;;;;7388059;19;20007;-64
2023/07/19 04:15:43;;;;;;;16.08;9.50;;;19.30;1.00;;;;;;7388420;19;20056;-64
2023/07/19 04:18:13;;;;;;;15.18;8.90;;;19.30;1.00;;;;;;7386587;19;20018;-64
2023/07/19 04:20:43;;;;;;;14.20;9.30;;;19.30;1.00;;;;;;7387050;19;20015;-64
2023/07/19 04:23:13;;;;;;;13.20;8.80;;;19.30;1.00;;;;;;7386750;19;20018;-64
2023/07/19 04:25:45;;;;;;;13.98;9.63;;;19.40;1.00;;;;;;7387348;19;20096;-64
2023/07/19 04:28:15;;;;;;;17.00;10.45;;;19.40;1.00;;;;;;7391951;19;20024;-64
2023/07/19 04:30:47;;;;;;;13.30;9.10;;;19.40;1.00;;;;;;7394082;19;20032;-64
2023/07/19 04:33:19;;;;;;;14.85;9.27;;;19.50;1.00;;;;;;7395197;19;20014;-64
2023/07/19 04:35:50;;;;;;;13.60;9.57;;;19.40;1.00;;;;;;7394612;19;20372;-64
2023/07/19 04:38:20;;;;;;;14.77;9.77;;;19.40;1.00;;;;;;7393882;19;20477;-64
2023/07/19 04:40:53;;;;;;;17.02;9.55;;;19.40;1.00;;;;;;7391156;19;20034;-64
2023/07/19 04:43:23;;;;;;;15.90;9.32;;;19.70;1.00;;;;;;7393649;19;20018;-64
2023/07/19 04:45:53;;;;;;;13.82;8.43;;;20.00;1.00;;;;;;7396563;19;20003;-64
2023/07/19 04:48:22;;;;;;;14.20;8.63;;;21.00;1.00;;;;;;7394617;19;20489;-64
2023/07/19 04:50:56;;;;;;;13.53;9.10;;;20.30;1.00;;;;;;7391221;19;20074;-65
2023/07/19 04:53:26;;;;;;;12.50;8.45;;;20.40;1.00;;;;;;7394646;19;20027;-65
2023/07/19 04:55:59;;;;;;;11.20;7.95;;;21.80;1.00;;;;;;7396028;19;20010;-63
2023/07/19 04:58:29;;;;;;;12.88;8.07;;;23.60;1.00;;;;;;7395633;19;20094;-64
2023/07/19 05:01:05;;;;;;;13.05;7.93;;;24.00;1.00;;;;;;7394788;19;20019;-64
2023/07/19 05:03:35;;;;;;;11.60;7.53;;;24.00;1.00;;;;;;7392608;19;20015;-66
2023/07/19 05:06:05;;;;;;;11.23;7.50;;;24.60;1.00;;;;;;7393633;19;20010;-65
2023/07/19 05:08:37;;;;;;;13.02;8.85;;;24.20;1.00;;;;;;7394194;19;20467;-65
2023/07/19 05:11:09;;;;;;;10.18;7.85;;;23.90;1.00;;;;;;7392044;19;20038;-65
2023/07/19 05:13:39;;;;;;;12.27;7.18;;;24.90;1.00;;;;;;7393436;19;20027;-64
2023/07/19 05:16:09;;;;;;;7.78;5.93;;;25.60;1.00;;;;;;7393672;19;20010;-64
2023/07/19 05:18:39;;;;;;;11.27;6.43;;;25.70;1.00;;;;;;7394238;19;20340;-65
2023/07/19 05:21:09;;;;;;;9.93;5.53;;;26.70;1.00;;;;;;7391569;19;20015;-65
2023/07/19 05:23:39;;;;;;;7.88;5.13;;;27.00;1.00;;;;;;7391523;19;20010;-64
2023/07/19 05:26:12;;;;;;;7.03;4.50;;;27.10;1.00;;;;;;7393092;19;20031;-64
2023/07/19 05:28:42;;;;;;;6.57;4.90;;;26.60;1.00;;;;;;7392908;19;20010;-64
2023/07/19 05:31:12;;;;;;;8.65;5.72;;;26.90;1.00;;;;;;7390548;19;20015;-64
2023/07/19 05:33:42;;;;;;;11.65;5.97;;;27.30;1.00;;;;;;7392280;19;20025;-65
2023/07/19 05:36:12;;;;;;;9.25;5.57;;;27.30;1.00;;;;;;7392799;19;20077;-65
2023/07/19 05:38:42;;;;;;;10.43;5.15;;;27.30;1.00;;;;;;7391419;19;20011;-66
2023/07/19 05:41:14;;;;;;;8.23;4.50;;;27.30;1.00;;;;;;7390402;19;20014;-64
2023/07/19 05:43:44;;;;;;;10.40;4.65;;;26.70;1.00;;;;;;7391661;19;20011;-65
2023/07/19 05:46:21;;;;;;;8.27;4.32;;;27.20;1.00;;;;;;7394187;19;20022;-65
2023/07/19 05:48:51;;;;;;;7.65;4.00;;;26.90;1.00;;;;;;7390971;19;20017;-65
2023/07/19 05:51:21;;;;;;;7.38;4.60;;;26.60;1.00;;;;;;7390565;19;20018;-64
2023/07/19 05:53:52;;;;;;;6.43;4.18;;;26.70;1.00;;;;;;7391829;19;20470;-65
2023/07/19 05:56:24;;;;;;;10.52;5.32;;;27.50;1.00;;;;;;7390925;19;20035;-64
2023/07/19 05:58:54;;;;;;;8.25;4.13;;;27.20;1.00;;;;;;7392692;19;20014;-64
2023/07/19 06:01:24;;;;;;;6.97;4.10;;;27.20;1.00;;;;;;7388109;19;20014;-64
2023/07/19 06:04:01;;;;;;;7.45;4.53;;;27.30;1.00;;;;;;7390380;19;20006;-64
2023/07/19 06:06:33;;;;;;;10.07;4.40;;;26.10;1.00;;;;;;7391830;19;20027;-64
2023/07/19 06:09:05;;;;;;;8.95;4.22;;;24.20;1.00;;;;;;7390837;19;20498;-64
2023/07/19 06:11:38;;;;;;;8.48;3.90;;;23.90;1.00;;;;;;7390314;19;20086;-64
2023/07/19 06:14:08;;;;;;;10.57;4.28;;;24.50;1.00;;;;;;7390832;19;20541;-64
2023/07/19 06:16:39;;;;;;;10.45;3.70;;;25.60;1.00;;;;;;7390841;19;20050;-64
2023/07/19 06:19:09;;;;;;;6.80;3.97;;;25.90;1.00;;;;;;7391867;19;20055;-64
2023/07/19 06:21:39;;;;;;;7.38;3.90;;;27.10;1.00;;;;;;7388050;19;20019;-64
2023/07/19 06:24:09;;;;;;;7.35;3.92;;;25.30;1.00;;;;;;7388178;19;20019;-64
2023/07/19 06:26:42;;;;;;;10.27;4.40;;;26.80;1.00;;;;;;7390291;19;20014;-65
2023/07/19 06:29:11;;;;;;;7.68;3.72;;;27.20;1.00;;;;;;7392121;19;20018;-65
2023/07/19 06:31:42;;;;;;;8.57;3.38;;;27.40;1.00;;;;;;7388294;19;20028;-65
2023/07/19 06:34:12;;;;;;;5.35;3.85;;;27.20;1.00;;;;;;7390224;19;20025;-66
2023/07/19 06:36:42;;;;;;;7.60;3.50;;;26.20;1.00;;;;;;7388856;19;20074;-65
2023/07/19 06:39:12;;;;;;;8.75;4.35;;;26.90;1.00;;;;;;7391006;19;20010;-65
2023/07/19 06:41:45;;;;;;;6.72;3.90;;;26.80;1.00;;;;;;7388630;19;20029;-65
2023/07/19 06:44:15;;;;;;;7.72;3.80;;;27.10;1.00;;;;;;7389745;19;20022;-65
2023/07/19 06:46:45;;;;;;;7.45;3.38;;;25.40;1.00;;;;;;7393608;19;20015;-65
2023/07/19 06:49:15;;;;;;;5.95;3.50;;;26.00;1.00;;;;;;7390594;19;20007;-64
2023/07/19 06:51:44;;;;;;;7.13;3.60;;;24.60;1.00;;;;;;7385771;19;20015;-64
2023/07/19 06:54:14;;;;;;;6.57;3.42;;;24.40;1.00;;;;;;7389811;19;20018;-64
2023/07/19 06:56:47;;;;;;;6.43;3.80;;;24.30;1.00;;;;;;7389528;19;20041;-64
2023/07/19 06:59:17;;;;;;;5.82;3.40;;;24.00;1.00;;;;;;7390374;19;20019;-66
2023/07/19 07:01:47;;;;;;;5.72;3.30;;;23.80;1.00;;;;;;7390503;19;20630;-64
2023/07/19 07:04:18;;;;;;;12.57;3.35;;;24.50;1.00;;;;;;7389054;19;20006;-64
2023/07/19 07:06:48;;;;;;;7.45;3.20;;;23.80;1.00;;;;;;7389537;19;20040;-64
2023/07/19 07:09:18;;;;;;;4.97;3.40;;;24.30;1.00;;;;;;7389672;19;20010;-64
2023/07/19 07:11:51;;;;;;;8.45;3.38;;;24.90;1.00;;;;;;7389261;19;20014;-64
2023/07/19 07:14:21;;;;;;;7.18;3.50;;;25.30;1.00;;;;;;7388965;19;20024;-65
2023/07/19 07:16:51;;;;;;;7.93;3.33;;;25.20;1.00;;;;;;7389356;19;20010;-64
2023/07/19 07:19:20;;;;;;;9.60;3.22;;;25.40;1.00;;;;;;7389858;19;20015;-65
2023/07/19 07:21:51;;;;;;;8.15;3.63;;;25.60;1.00;;;;;;7388985;19;20028;-64
2023/07/19 07:24:21;;;;;;;5.30;3.03;;;25.00;1.00;;;;;;7388686;19;20006;-64
2023/07/19 07:26:53;;;;;;;5.00;2.78;;;24.60;1.00;;;;;;7389287;19;20019;-64
2023/07/19 07:29:23;;;;;;;5.05;2.90;;;24.80;1.00;;;;;;7389286;19;20031;-65
2023/07/19 07:31:53;;;;;;;5.95;2.80;;;24.80;1.00;;;;;;7389226;19;20038;-64
2023/07/19 07:34:24;;;;;;;7.05;2.95;;;25.20;1.00;;;;;;7389162;19;20015;-64
2023/07/19 07:36:54;;;;;;;7.30;3.17;;;25.50;1.00;;;;;;7389394;19;20018;-66
2023/07/19 07:39:24;;;;;;;5.97;2.78;;;25.70;1.00;;;;;;7389334;19;20010;-64
2023/07/19 07:41:56;;;;;;;5.20;2.55;;;25.80;1.00;;;;;;7389701;19;20018;-65
2023/07/19 07:44:26;;;;;;;6.28;3.10;;;25.80;1.00;;;;;;7388556;19;20027;-65
2023/07/19 07:46:56;;;;;;;5.20;2.97;;;25.10;1.00;;;;;;7390245;19;20033;-65
2023/07/19 07:49:26;;;;;;;7.70;2.92;;;25.30;1.00;;;;;;7388022;19;20010;-65
2023/07/19 07:51:56;;;;;;;5.15;2.92;;;25.70;1.00;;;;;;7387052;19;20038;-65
2023/07/19 07:54:26;;;;;;;4.90;2.67;;;25.80;1.00;;;;;;7388398;19;20466;-65
2023/07/19 07:56:59;;;;;;;5.43;2.60;;;25.70;1.00;;;;;;7388414;19;20038;-65
2023/07/19 07:59:28;;;;;;;6.05;2.33;;;26.00;1.00;;;;;;7387954;19;20023;-65
2023/07/19 08:01:59;;;;;;;5.65;2.38;;;26.40;1.00;;;;;;7388308;19;20022;-66
2023/07/19 08:04:28;;;;;;;4.03;2.20;;;25.90;1.00;;;;;;7388194;19;20022;-64
2023/07/19 08:06:58;;;;;;;6.20;2.85;;;26.30;1.00;;;;;;7387800;19;20018;-65
2023/07/19 08:09:29;;;;;;;5.28;2.50;;;26.60;1.00;;;;;;7388248;19;20462;-65
2023/07/19 08:12:01;;;;;;;3.45;2.20;;;26.60;1.00;;;;;;7388029;19;20045;-65
2023/07/19 08:14:31;;;;;;;4.57;2.67;;;26.10;1.00;;;;;;7387696;19;20018;-64
2023/07/19 08:17:01;;;;;;;5.95;1.85;;;26.80;1.00;;;;;;7387197;19;20034;-65
2023/07/19 08:19:32;;;;;;;6.38;2.30;;;26.50;1.00;;;;;;7387599;19;20014;-63
2023/07/19 08:22:05;;;;;;;7.97;2.33;;;26.50;1.00;;;;;;7387450;19;20015;-64
2023/07/19 08:24:36;;;;;;;6.13;2.30;;;26.40;1.00;;;;;;7385401;19;20416;-64
2023/07/19 08:27:09;;;;;;;4.75;2.40;;;26.50;1.00;;;;;;7386631;19;20375;-65
2023/07/19 08:29:39;;;;;;;3.42;2.00;;;26.00;1.00;;;;;;7386645;19;20509;-65
2023/07/19 08:32:10;;;;;;;5.38;2.40;;;25.70;1.00;;;;;;7386820;19;20018;-65
2023/07/19 08:34:40;;;;;;;6.88;2.00;;;26.20;1.00;;;;;;7386054;19;20035;-64
2023/07/19 08:37:10;;;;;;;7.72;2.17;;;25.90;1.00;;;;;;7386146;19;20022;-66
2023/07/19 08:39:40;;;;;;;3.25;1.60;;;26.00;1.00;;;;;;7386644;19;20029;-64
2023/07/19 08:42:12;;;;;;;5.47;2.00;;;26.30;1.00;;;;;;7386395;19;20014;-64
2023/07/19 08:44:42;;;;;;;5.63;2.40;;;26.30;1.00;;;;;;7386142;19;20227;-64
2023/07/19 08:47:14;;;;;;;4.95;2.35;;;26.50;1.00;;;;;;7390891;19;20010;-66
2023/07/19 08:49:45;;;;;;;7.05;2.13;;;26.40;1.00;;;;;;7384835;19;20035;-65
2023/07/19 08:52:16;;;;;;;6.65;2.20;;;26.80;1.00;;;;;;7385747;19;20071;-65
2023/07/19 08:54:46;;;;;;;3.95;2.10;;;26.60;1.00;;;;;;7383959;19;20081;-64
2023/07/19 08:57:20;;;;;;;4.30;2.15;;;27.10;1.00;;;;;;7386224;19;20022;-65
2023/07/19 08:59:50;;;;;;;3.10;1.60;;;27.10;1.00;;;;;;7386378;19;20018;-64
2023/07/19 09:02:20;;;;;;;4.10;1.77;;;26.70;1.00;;;;;;7389789;19;20010;-65
2023/07/19 09:05:09;;;;;;;3.08;1.80;;;26.80;1.00;;;;;;7389273;19;20037;-64
2023/07/19 09:07:41;;;;;;;4.82;1.83;;;26.90;1.00;;;;;;7390889;19;20010;-63
2023/07/19 09:10:12;;;;;;;2.40;1.50;;;26.50;1.00;;;;;;7386499;19;20024;-64
2023/07/19 09:12:47;;;;;;;3.00;1.90;;;26.30;1.00;;;;;;7384925;19;20027;-64
2023/07/19 09:15:17;;;;;;;4.88;1.80;;;26.60;1.00;;;;;;7392890;19;20018;-64
2023/07/19 09:17:50;;;;;;;4.30;1.95;;;26.80;1.00;;;;;;7393951;19;20048;-63
2023/07/19 09:20:20;;;;;;;2.65;1.90;;;27.00;1.00;;;;;;7395162;19;20018;-64
2023/07/19 09:22:50;;;;;;;2.72;1.88;;;27.10;1.00;;;;;;7392788;19;20018;-65
2023/07/19 09:25:20;;;;;;;4.32;1.88;;;27.00;1.00;;;;;;7394574;19;20014;-63
2023/07/19 09:27:54;;;;;;;3.67;2.00;;;26.90;1.00;;;;;;7391171;19;20394;-64
2023/07/19 09:30:25;;;;;;;7.68;1.80;;;27.60;1.00;;;;;;7393254;19;20041;-64
2023/07/19 09:33:03;;;;;;;2.90;1.63;;;27.50;1.00;;;;;;7391789;19;20481;-64
2023/07/19 09:35:33;;;;;;;2.45;1.80;;;27.00;1.00;;;;;;7392370;19;20358;-64
2023/07/19 09:38:03;;;;;;;3.40;1.60;;;27.50;1.00;;;;;;7392432;19;20014;-64
2023/07/19 09:40:33;;;;;;;5.20;1.55;;;27.10;1.00;;;;;;7393088;19;20019;-64
2023/07/19 09:43:06;;;;;;;2.85;1.70;;;27.80;1.00;;;;;;7392674;19;20042;-65
2023/07/19 09:45:36;;;;;;;3.00;1.60;;;27.90;1.00;;;;;;7393425;19;20100;-65
2023/07/19 09:48:07;;;;;;;4.70;1.40;;;28.00;1.00;;;;;;7391814;19;20514;-64
2023/07/19 09:50:39;;;;;;;5.15;1.40;;;28.40;1.00;;;;;;7392957;19;20106;-64
2023/07/19 09:53:13;;;;;;;3.67;1.60;;;27.40;1.00;;;;;;7395347;19;20374;-65
2023/07/19 09:55:43;;;;;;;;;;;27.90;1.00;;;;;;7390322;19;20068;-64
2023/07/19 09:58:17;;;;;;;2.88;1.92;;;28.10;1.00;;;;;;7391196;19;20324;-65
2023/07/19 10:00:48;;;;;;;2.92;1.45;;;27.70;1.00;;;;;;7391250;19;20029;-64
2023/07/19 10:03:22;;;;;;;3.78;3.40;;;27.70;1.00;;;;;;7391650;19;20014;-65
2023/07/19 10:05:58;;;;;;;3.17;1.80;;;27.70;1.00;;;;;;7391453;19;20006;-64
2023/07/19 10:08:30;;;;;;;2.50;1.45;;;28.10;1.00;;;;;;7391777;19;20014;-66
2023/07/19 10:11:03;;;;;;;1.83;1.45;;;27.70;1.00;;;;;;7391178;19;20044;-64
2023/07/19 10:13:56;;;;;;;2.50;1.30;;;28.50;1.00;;;;;;7394755;19;20033;-64
2023/07/19 10:16:36;;;;;;;3.08;1.48;;;28.90;1.00;;;;;;7396333;19;20027;-64
2023/07/19 10:19:10;;;;;;;4.78;2.03;;;28.30;1.00;;;;;;7391356;19;20021;-64
2023/07/19 10:21:40;;;;;;;2.88;1.52;;;27.70;1.00;;;;;;7392759;19;20025;-65
2023/07/19 10:24:08;;;;;;;4.22;1.83;;;28.10;1.00;;;;;;7390520;19;20014;-63
2023/07/19 10:26:38;;;;;;;3.13;1.50;;;27.80;1.00;;;;;;7387523;19;20035;-64
2023/07/19 10:29:11;;;;;;;3.13;1.60;;;28.60;1.00;;;;;;7390779;19;20106;-64
2023/07/19 10:31:41;;;;;;;3.10;1.75;;;28.20;1.00;;;;;;7392596;19;20026;-71
2023/07/19 10:34:11;;;;;;;3.90;1.42;;;28.40;1.00;;;;;;7390010;19;20014;-66
2023/07/19 10:36:47;;;;;;;3.05;1.50;;;28.10;1.00;;;;;;7390669;19;20015;-65
2023/07/19 10:39:17;;;;;;;4.07;1.70;;;28.00;1.00;;;;;;7390576;19;20039;-66
2023/07/19 10:41:52;;;;;;;7.20;1.67;;;28.00;1.00;;;;;;7394070;19;20051;-64
2023/07/19 10:44:26;;;;;;;4.00;1.50;;;28.40;1.00;;;;;;7390052;19;20082;-65
2023/07/19 10:46:56;;;;;;;2.83;1.30;;;28.40;1.00;;;;;;7393990;19;20085;-65
2023/07/19 10:49:27;;;;;;;3.00;1.65;;;28.10;1.00;;;;;;7390234;19;20022;-65
2023/07/19 10:51:58;;;;;;;4.00;1.90;;;28.80;1.00;;;;;;7390176;19;20023;-64
2023/07/19 10:54:28;;;;;;;2.95;1.40;;;29.20;1.00;;;;;;7389022;19;20038;-64
2023/07/19 10:57:11;;;;;;;4.28;1.60;;;28.80;1.00;;;;;;7389898;19;20025;-64
2023/07/19 10:59:50;;;;;;;2.45;1.50;;;28.40;1.00;;;;;;7389624;19;20078;-65
2023/07/19 11:02:20;;;;;;;4.32;1.50;;;28.40;1.00;;;;;;7388707;19;20035;-64
2023/07/19 11:04:51;;;;;;;2.58;1.50;;;29.00;1.00;;;;;;7388885;19;20086;-65
2023/07/19 11:07:33;;;;;;;5.20;1.52;;;28.20;1.00;;;;;;7387623;19;20082;-65
2023/07/19 11:10:04;;;;;;;2.75;1.58;;;29.20;1.00;;;;;;7389332;19;20624;-67
2023/07/19 11:12:34;;;;;;;4.53;1.95;;;28.10;1.00;;;;;;7389162;19;20086;-64
2023/07/19 11:15:10;;;;;;;4.30;1.65;;;28.90;1.00;;;;;;7387206;19;20035;-67
2023/07/19 11:17:40;;;;;;;7.10;1.50;;;29.50;1.00;;;;;;7389112;19;20010;-65
2023/07/19 11:20:12;;;;;;;6.18;1.88;;;29.40;1.00;;;;;;7388734;19;20019;-65
2023/07/19 11:22:43;;;;;;;3.30;1.40;;;29.40;1.00;;;;;;7387044;19;20374;-65
2023/07/19 11:25:14;;;;;;;3.65;1.85;;;28.90;1.00;;;;;;7387996;19;20018;-65
2023/07/19 11:27:44;;;;;;;6.72;1.75;;;29.40;1.00;;;;;;7389581;19;20010;-65
2023/07/19 11:30:17;;;;;;;3.65;1.67;;;29.30;1.00;;;;;;7390368;19;20027;-65
2023/07/19 11:32:47;;;;;;;4.65;1.90;;;29.60;1.00;;;;;;7388968;19;20026;-64
2023/07/19 11:35:27;;;;;;;3.92;2.03;;;29.20;1.00;;;;;;7390840;19;20018;-65
2023/07/19 11:37:57;;;;;;;5.75;1.75;;;28.80;1.00;;;;;;7388252;19;20046;-65
2023/07/19 11:40:27;;;;;;;3.97;1.85;;;29.40;1.00;;;;;;7388895;19;20082;-66
2023/07/19 11:42:59;;;;;;;3.65;1.80;;;29.90;1.00;;;;;;7390036;19;20042;-63
2023/07/19 11:45:32;;;;;;;8.25;2.50;;;29.70;1.00;;;;;;7389869;19;20018;-65
2023/07/19 11:48:03;;;;;;;4.70;2.00;;;29.40;1.00;;;;;;7387561;19;20028;-66
2023/07/19 11:50:33;;;;;;;4.32;2.10;;;29.10;1.00;;;;;;7388695;19;20021;-64
2023/07/19 11:53:05;;;;;;;4.15;2.20;;;29.10;1.00;;;;;;7387710;19;20023;-65
2023/07/19 11:55:36;;;;;;;4.35;2.28;;;28.80;1.00;;;;;;7387176;19;20014;-65
2023/07/19 11:58:07;;;;;;;6.72;2.05;;;28.90;1.00;;;;;;7388157;19;20019;-66
2023/07/19 12:00:40;;;;;;;6.85;2.70;;;29.10;1.00;;;;;;7388474;19;20022;-65
2023/07/19 12:03:10;;;;;;;3.95;2.15;;;29.00;1.00;;;;;;7388182;19;20089;-65
2023/07/19 12:05:40;;;;;;;6.20;2.33;;;28.70;1.00;;;;;;7387895;19;20018;-65
2023/07/19 12:08:10;;;;;;;3.97;2.00;;;28.90;1.00;;;;;;7385605;19;20485;-65
2023/07/19 12:10:40;;;;;;;4.07;2.25;;;28.70;1.00;;;;;;7387576;19;20018;-65
2023/07/19 12:13:10;;;;;;;3.28;1.92;;;28.90;1.00;;;;;;7387973;19;20022;-66
2023/07/19 12:15:42;;;;;;;4.90;2.17;;;29.40;1.00;;;;;;7386904;19;20124;-65
2023/07/19 12:18:12;;;;;;;11.15;2.05;;;29.50;1.00;;;;;;7387931;19;20025;-64
2023/07/19 12:20:43;;;;;;;6.38;2.22;;;29.40;1.00;;;;;;7387559;19;20433;-64
2023/07/19 12:23:13;;;;;;;4.25;1.95;;;28.70;1.00;;;;;;7387852;19;20062;-65
2023/07/19 12:25:43;;;;;;;9.98;2.80;;;29.10;1.00;;;;;;7387040;19;20014;-64
2023/07/19 12:28:14;;;;;;;6.95;2.75;;;29.40;1.00;;;;;;7385599;19;20034;-65
2023/07/19 12:30:48;;;;;;;8.18;2.30;;;29.40;1.00;;;;;;7387011;19;20392;-65
2023/07/19 12:33:18;;;;;;;5.32;2.35;;;28.70;1.00;;;;;;7391121;19;20497;-63
2023/07/19 12:35:49;;;;;;;3.95;2.20;;;28.70;1.00;;;;;;7389796;19;20402;-65
2023/07/19 12:38:19;;;;;;;4.63;2.30;;;28.60;1.00;;;;;;7387246;19;20019;-63
2023/07/19 12:40:49;;;;;;;3.95;2.10;;;28.70;1.00;;;;;;7389681;19;20380;-64
2023/07/19 12:43:19;;;;;;;9.23;2.47;;;29.10;1.00;;;;;;7392204;19;20509;-63
2023/07/19 12:45:52;;;;;;;4.60;2.00;;;29.30;1.00;;;;;;7389609;19;20513;-64
2023/07/19 12:48:22;;;;;;;4.13;2.08;;;29.30;1.00;;;;;;7385820;19;20014;-65
2023/07/19 12:50:52;;;;;;;3.60;2.25;;;29.30;1.00;;;;;;7389295;19;20035;-64
2023/07/19 12:53:22;;;;;;;7.95;2.50;;;29.40;1.00;;;;;;7395760;19;20015;-64
2023/07/19 12:55:53;;;;;;;9.15;2.45;;;29.10;1.00;;;;;;7391215;19;20014;-63
2023/07/19 12:58:24;;;;;;;4.40;2.05;;;28.80;1.00;;;;;;7390230;19;20018;-65
2023/07/19 13:00:57;;;;;;;6.25;2.15;;;29.70;1.00;;;;;;7393477;19;20020;-65
2023/07/19 13:03:30;;;;;;;3.88;2.10;;;29.30;1.00;;;;;;7387744;19;20014;-65
2023/07/19 13:06:00;;;;;;;3.63;2.33;;;29.10;1.00;;;;;;7390002;19;20030;-64
2023/07/19 13:08:30;;;;;;;6.30;2.50;;;29.10;1.00;;;;;;7391839;19;20478;-65
2023/07/19 13:11:00;;;;;;;3.88;1.95;;;29.60;1.00;;;;;;7390141;19;20022;-65
2023/07/19 13:13:30;;;;;;;6.38;2.30;;;29.50;1.00;;;;;;7390103;19;20018;-65
2023/07/19 13:16:03;;;;;;;5.32;2.33;;;28.80;1.00;;;;;;7391455;19;20010;-65